Time;durP1;ratioP1;P1;durP2;ratioP2;P2;SDS_P1;SDS_P2;PMS_P1;PMS_P2;Temp;Humidity;BMP_temperature;BMP_pressure;BME280_temperature;BME280_humidity;BME280_pressure;Samples;Min_cycle;Max_cycle;Signal;HPM_P1;HPM_P2
2023/10/08 00:00:49;;;;;;;7.90;4.10;;;15.80;10.80;;;;;;4997128;28;48328;-80
2023/10/08 00:03:17;;;;;;;9.63;4.17;;;15.80;10.80;;;;;;4996073;28;47477;-79
2023/10/08 00:05:43;;;;;;;9.57;4.10;;;15.80;10.70;;;;;;4987103;28;46606;-79
2023/10/08 00:08:09;;;;;;;6.87;3.57;;;15.90;10.70;;;;;;4998869;28;46814;-80
2023/10/08 00:10:42;;;;;;;10.40;4.00;;;15.90;10.60;;;;;;4997555;28;47029;-80
2023/10/08 00:13:09;;;;;;;7.50;4.20;;;15.90;10.60;;;;;;4997024;28;46773;-82
2023/10/08 00:15:49;;;;;;;7.00;3.83;;;15.90;10.60;;;;;;4996771;28;46676;-79
2023/10/08 00:18:15;;;;;;;7.33;3.33;;;15.90;10.30;;;;;;4998641;28;46588;-79
2023/10/08 00:23:25;;;;;;;11.50;4.40;;;16.00;10.00;;;;;;4997014;28;46539;-79
2023/10/08 00:25:52;;;;;;;14.03;4.27;;;16.00;9.70;;;;;;4996759;28;46555;-80
2023/10/08 00:28:17;;;;;;;10.47;4.47;;;16.10;9.40;;;;;;4999683;28;46537;-79
2023/10/08 00:30:44;;;;;;;8.57;4.20;;;16.20;9.00;;;;;;5000034;28;47383;-79
2023/10/08 00:33:11;;;;;;;6.33;3.60;;;16.20;8.60;;;;;;5000202;28;46510;-80
2023/10/08 00:35:41;;;;;;;9.13;3.50;;;16.20;8.60;;;;;;5000464;28;46680;-79
2023/10/08 00:38:20;;;;;;;9.67;3.53;;;16.30;8.70;;;;;;5000641;28;46606;-80
2023/10/08 00:40:48;;;;;;;8.03;3.73;;;16.30;8.70;;;;;;4998971;28;49379;-80
2023/10/08 00:43:34;;;;;;;9.10;3.80;;;16.40;8.70;;;;;;5000048;28;46497;-79
2023/10/08 00:45:59;;;;;;;8.97;4.23;;;16.30;8.70;;;;;;4998234;28;47858;-79
2023/10/08 00:48:29;;;;;;;8.27;3.57;;;16.40;8.80;;;;;;5001843;28;46928;-78
2023/10/08 00:51:10;;;;;;;9.30;4.10;;;16.40;9.80;;;;;;4985344;28;48286;-79
2023/10/08 00:53:39;;;;;;;10.27;4.00;;;16.50;8.50;;;;;;5001248;28;46986;-79
2023/10/08 00:56:15;;;;;;;9.40;4.50;;;16.40;8.30;;;;;;4996955;28;46727;-81
2023/10/08 00:58:41;;;;;;;8.60;3.57;;;16.40;8.00;;;;;;4998650;28;46655;-80
2023/10/08 01:01:10;;;;;;;7.27;3.50;;;16.50;8.00;;;;;;4998844;28;48098;-82
2023/10/08 01:03:43;;;;;;;7.83;3.80;;;16.40;7.60;;;;;;4998120;28;46460;-81
2023/10/08 01:06:10;;;;;;;12.73;4.00;;;16.40;7.50;;;;;;5000093;28;46186;-80
2023/10/08 01:08:36;;;;;;;7.43;3.70;;;16.50;7.60;;;;;;5002269;28;46545;-79
2023/10/08 01:11:45;;;;;;;7.27;3.60;;;16.50;7.40;;;;;;5001611;28;46657;-79
2023/10/08 01:14:07;;;;;;;8.37;3.93;;;16.50;7.10;;;;;;5001621;28;46746;-81
2023/10/08 01:16:34;;;;;;;8.53;3.73;;;16.50;7.20;;;;;;5003055;28;46428;-80
2023/10/08 01:19:00;;;;;;;8.27;3.80;;;16.60;7.30;;;;;;5000883;28;46249;-80
2023/10/08 01:21:34;;;;;;;8.07;3.60;;;16.80;7.20;;;;;;5000983;28;46495;-80
2023/10/08 01:24:06;;;;;;;7.77;3.70;;;16.60;6.90;;;;;;4998852;28;46188;-80
2023/10/08 01:26:33;;;;;;;8.50;3.30;;;16.50;6.90;;;;;;5000172;28;46932;-79
2023/10/08 01:29:07;;;;;;;9.90;3.97;;;16.60;7.00;;;;;;4996638;28;46567;-80
2023/10/08 01:31:33;;;;;;;11.93;3.70;;;16.50;6.90;;;;;;5000422;28;46523;-80
2023/10/08 01:33:58;;;;;;;8.53;3.60;;;16.50;6.90;;;;;;4998339;28;46517;-80
2023/10/08 01:36:28;;;;;;;8.40;3.83;;;16.50;6.80;;;;;;4998332;28;46549;-80
2023/10/08 01:38:54;;;;;;;8.03;4.10;;;16.50;6.80;;;;;;4999055;28;46696;-80
2023/10/08 01:41:25;;;;;;;8.13;3.50;;;16.40;6.70;;;;;;4998654;28;46435;-81
2023/10/08 01:43:52;;;;;;;10.90;4.03;;;16.40;6.60;;;;;;4998502;28;46486;-80
2023/10/08 01:46:21;;;;;;;7.60;3.80;;;16.40;6.70;;;;;;4995595;28;46785;-80
2023/10/08 01:48:49;;;;;;;11.20;4.50;;;16.30;6.50;;;;;;4996417;28;46413;-80
2023/10/08 01:51:24;;;;;;;9.13;3.90;;;16.30;6.50;;;;;;4999409;28;46501;-79
2023/10/08 01:53:55;;;;;;;9.63;3.87;;;16.30;6.50;;;;;;4997811;28;46514;-80
2023/10/08 01:56:21;;;;;;;9.57;4.13;;;16.40;6.40;;;;;;4999449;28;46763;-80
2023/10/08 01:58:46;;;;;;;9.03;4.10;;;16.30;6.30;;;;;;4998696;28;46459;-80
2023/10/08 02:01:16;;;;;;;8.60;3.67;;;16.40;6.30;;;;;;5000274;28;46487;-79
2023/10/08 02:03:41;;;;;;;7.77;4.00;;;16.30;6.10;;;;;;4997689;28;46817;-79
2023/10/08 02:06:08;;;;;;;8.27;3.93;;;16.40;6.20;;;;;;4998784;28;46800;-81
2023/10/08 02:08:34;;;;;;;10.20;3.93;;;16.40;6.00;;;;;;4998990;28;46730;-81
2023/10/08 02:10:59;;;;;;;10.63;3.77;;;16.40;5.80;;;;;;4997564;28;49291;-79
2023/10/08 02:13:26;;;;;;;7.83;3.53;;;16.40;5.80;;;;;;4999017;28;46478;-81
2023/10/08 02:15:52;;;;;;;8.10;3.77;;;16.40;5.70;;;;;;4999408;28;46463;-80
2023/10/08 02:18:18;;;;;;;9.37;3.60;;;16.50;5.70;;;;;;4996692;28;46928;-80
2023/10/08 02:20:44;;;;;;;11.77;4.43;;;16.50;5.50;;;;;;4999653;28;47048;-81
2023/10/08 02:23:12;;;;;;;9.93;3.97;;;16.50;5.30;;;;;;5000924;28;46435;-80
2023/10/08 02:25:39;;;;;;;8.30;3.60;;;16.50;5.50;;;;;;5003117;28;46503;-80
2023/10/08 02:28:08;;;;;;;9.07;3.70;;;16.40;5.20;;;;;;5001622;28;46607;-81
2023/10/08 02:30:34;;;;;;;7.47;3.50;;;16.50;5.20;;;;;;4999952;28;46782;-80
2023/10/08 02:33:00;;;;;;;7.63;3.30;;;16.40;5.30;;;;;;4996498;28;46546;-81
2023/10/08 02:35:27;;;;;;;9.73;3.87;;;16.60;5.20;;;;;;4998079;28;46971;-79
2023/10/08 02:37:54;;;;;;;8.27;3.90;;;16.40;5.20;;;;;;4996842;28;45920;-77
2023/10/08 02:40:26;;;;;;;10.73;3.20;;;16.40;5.10;;;;;;4996862;28;48260;-79
2023/10/08 02:43:07;;;;;;;9.80;3.67;;;16.40;5.20;;;;;;4998893;28;46486;-80
2023/10/08 02:45:37;;;;;;;8.90;3.47;;;16.40;5.20;;;;;;4997852;28;46498;-80
2023/10/08 02:48:04;;;;;;;13.97;4.13;;;16.50;5.20;;;;;;4996278;28;46551;-79
2023/10/08 02:50:29;;;;;;;8.33;3.40;;;16.40;5.10;;;;;;4998552;28;47101;-80
2023/10/08 02:53:02;;;;;;;9.90;4.33;;;16.40;5.00;;;;;;4996113;28;46579;-79
2023/10/08 02:55:34;;;;;;;10.70;4.63;;;16.40;5.00;;;;;;4998134;28;47652;-79
2023/10/08 02:58:02;;;;;;;8.10;3.60;;;16.40;5.00;;;;;;4998331;28;46757;-80
2023/10/08 03:00:34;;;;;;;7.13;3.80;;;16.40;4.90;;;;;;4995256;28;47656;-80
2023/10/08 03:03:01;;;;;;;11.93;4.00;;;16.40;5.00;;;;;;4994754;28;46839;-80
2023/10/08 03:05:32;;;;;;;9.00;4.00;;;16.50;5.00;;;;;;4998006;28;46865;-80
2023/10/08 03:07:58;;;;;;;8.03;3.67;;;16.50;5.00;;;;;;4998979;28;46486;-81
2023/10/08 03:10:32;;;;;;;8.57;3.70;;;16.40;4.90;;;;;;4998499;28;46746;-80
2023/10/08 03:13:04;;;;;;;6.97;3.50;;;16.40;4.90;;;;;;4998078;28;46421;-80
2023/10/08 03:15:30;;;;;;;6.73;3.40;;;16.30;4.90;;;;;;5000646;28;46479;-81
2023/10/08 03:18:08;;;;;;;8.80;3.43;;;16.30;4.80;;;;;;4999109;28;46453;-81
2023/10/08 03:20:38;;;;;;;6.97;3.30;;;16.50;5.00;;;;;;4999708;28;46727;-80
2023/10/08 03:23:23;;;;;;;12.93;3.53;;;16.40;4.80;;;;;;4997527;28;46364;-80
2023/10/08 03:26:02;;;;;;;9.20;3.53;;;16.30;4.70;;;;;;4997717;28;46408;-80
2023/10/08 03:28:29;;;;;;;8.63;3.87;;;16.30;4.60;;;;;;4995882;28;46547;-80
2023/10/08 03:31:13;;;;;;;8.20;3.70;;;16.40;4.70;;;;;;4999969;28;47133;-79
2023/10/08 03:33:39;;;;;;;10.20;3.70;;;16.40;4.70;;;;;;4997184;28;46563;-80
2023/10/08 03:36:09;;;;;;;9.87;3.27;;;16.30;4.60;;;;;;4999472;28;46720;-79
2023/10/08 03:38:50;;;;;;;8.40;3.80;;;16.40;4.50;;;;;;4996025;28;46428;-81
2023/10/08 03:41:29;;;;;;;7.53;3.27;;;16.40;4.50;;;;;;4996911;28;47070;-80
2023/10/08 03:44:01;;;;;;;13.60;3.80;;;16.40;4.40;;;;;;4989013;28;46411;-80
2023/10/08 03:46:31;;;;;;;8.03;3.40;;;16.40;4.40;;;;;;4997475;28;46514;-80
2023/10/08 03:49:04;;;;;;;6.83;3.47;;;16.30;4.30;;;;;;4996429;28;46945;-81
2023/10/08 03:51:29;;;;;;;10.50;3.67;;;16.30;4.40;;;;;;4997643;28;47691;-80
2023/10/08 03:56:41;;;;;;;15.17;3.70;;;16.30;4.30;;;;;;4998886;28;46614;-80
2023/10/08 03:59:12;;;;;;;8.60;3.73;;;16.30;4.30;;;;;;4999987;28;46736;-81
2023/10/08 04:01:42;;;;;;;7.57;3.27;;;16.30;4.20;;;;;;4998105;28;48562;-81
2023/10/08 04:04:14;;;;;;;9.03;3.70;;;16.40;4.20;;;;;;4992107;28;46919;-81
2023/10/08 04:06:49;;;;;;;9.00;3.83;;;16.30;4.20;;;;;;5000923;28;46832;-81
2023/10/08 04:09:24;;;;;;;8.13;3.80;;;16.30;4.20;;;;;;5001284;28;46444;-80
2023/10/08 04:14:24;;;;;;;7.90;3.50;;;16.40;4.10;;;;;;5002117;28;46443;-81
2023/10/08 04:16:51;;;;;;;7.23;3.10;;;16.40;4.10;;;;;;4998680;28;46783;-82
2023/10/08 04:19:26;;;;;;;10.17;3.90;;;16.40;4.20;;;;;;5015179;28;46451;-79
2023/10/08 04:21:55;;;;;;;9.63;4.30;;;16.30;4.00;;;;;;4998347;28;46728;-79
2023/10/08 04:24:29;;;;;;;7.43;3.30;;;16.40;4.10;;;;;;4999783;28;47117;-79
2023/10/08 04:26:57;;;;;;;8.17;3.07;;;16.30;4.00;;;;;;4989876;28;46496;-79
2023/10/08 04:29:24;;;;;;;8.60;3.93;;;16.40;4.10;;;;;;4997990;28;46593;-77
2023/10/08 04:32:01;;;;;;;9.23;3.67;;;16.40;4.00;;;;;;5000960;28;46297;-79
2023/10/08 04:34:28;;;;;;;10.13;3.87;;;16.50;4.00;;;;;;4999689;28;46705;-80
2023/10/08 04:36:54;;;;;;;10.43;4.97;;;16.40;3.90;;;;;;4999808;28;46431;-81
2023/10/08 04:39:26;;;;;;;8.93;3.17;;;16.40;3.90;;;;;;4999412;28;46431;-81
2023/10/08 04:41:54;;;;;;;7.13;3.10;;;16.40;4.00;;;;;;4998706;28;48336;-80
2023/10/08 04:44:21;;;;;;;7.43;3.50;;;16.40;4.10;;;;;;4999310;28;46451;-78
2023/10/08 04:46:48;;;;;;;8.90;3.40;;;16.30;4.00;;;;;;4998112;28;46719;-79
2023/10/08 04:52:08;;;;;;;8.00;3.43;;;16.30;4.00;;;;;;4999862;28;47272;-80
2023/10/08 04:54:39;;;;;;;9.60;3.70;;;16.40;4.00;;;;;;4992267;28;46446;-78
2023/10/08 04:57:06;;;;;;;10.50;3.67;;;16.40;4.00;;;;;;5001024;28;46529;-79
2023/10/08 04:59:32;;;;;;;12.03;3.90;;;16.40;3.90;;;;;;4998463;28;46647;-80
2023/10/08 05:02:18;;;;;;;10.23;4.23;;;16.40;3.80;;;;;;4999033;28;46934;-78
2023/10/08 05:04:56;;;;;;;8.40;3.77;;;16.40;3.90;;;;;;4997802;28;46700;-79
2023/10/08 05:08:00;;;;;;;7.83;3.40;;;16.40;3.90;;;;;;4998516;28;46521;-79
2023/10/08 05:16:02;;;;;;;12.50;3.67;;;16.20;4.30;;;;;;4998699;28;46507;-79
2023/10/08 05:18:54;;;;;;;8.60;3.50;;;16.10;4.30;;;;;;5000227;28;46798;-77
2023/10/08 05:24:09;;;;;;;9.80;3.97;;;16.10;4.40;;;;;;4976032;28;46765;-80
2023/10/08 05:26:42;;;;;;;6.93;3.37;;;16.10;4.30;;;;;;5007235;28;46679;-79
2023/10/08 05:32:37;;;;;;;8.20;3.60;;;16.20;4.40;;;;;;4999559;28;46720;-80
2023/10/08 05:34:42;;;;;;;9.17;4.30;;;16.00;4.40;;;;;;4996871;28;46525;-79
2023/10/08 05:42:31;;;;;;;11.83;3.93;;;16.00;4.60;;;;;;4998549;28;47238;-79
2023/10/08 05:55:33;;;;;;;16.97;4.27;;;16.50;4.00;;;;;;4997377;28;47174;-80
2023/10/08 05:58:13;;;;;;;10.47;3.73;;;16.50;3.90;;;;;;5000588;28;46501;-79
2023/10/08 06:03:32;;;;;;;8.70;3.40;;;16.70;3.60;;;;;;4989945;28;46603;-76
2023/10/08 06:11:56;;;;;;;12.10;3.70;;;17.00;3.40;;;;;;4963129;28;46438;-81
2023/10/08 06:14:42;;;;;;;9.43;3.93;;;17.00;3.60;;;;;;4998690;28;46506;-81
2023/10/08 06:17:23;;;;;;;8.77;3.30;;;17.00;3.60;;;;;;4996302;28;47515;-81
2023/10/08 06:19:52;;;;;;;9.90;3.80;;;16.90;3.80;;;;;;4998719;28;46688;-81
2023/10/08 06:22:19;;;;;;;13.67;3.73;;;17.00;4.10;;;;;;4996537;28;46660;-80
2023/10/08 06:24:44;;;;;;;11.03;3.37;;;16.90;4.20;;;;;;4998068;28;46553;-79
2023/10/08 06:27:16;;;;;;;9.43;4.00;;;17.00;4.20;;;;;;4997330;28;48480;-80
2023/10/08 06:29:44;;;;;;;9.60;3.70;;;17.00;4.10;;;;;;4998311;28;45886;-80
2023/10/08 06:32:11;;;;;;;10.97;3.90;;;17.20;4.10;;;;;;4998391;28;46825;-80
2023/10/08 06:34:40;;;;;;;9.63;3.33;;;17.30;4.00;;;;;;4999560;28;45943;-80
2023/10/08 06:37:07;;;;;;;10.43;3.43;;;17.50;4.00;;;;;;4996382;28;48659;-83
2023/10/08 06:39:47;;;;;;;9.30;3.73;;;17.60;3.80;;;;;;5000778;28;46151;-80
2023/10/08 06:42:16;;;;;;;9.47;3.17;;;17.70;3.80;;;;;;4998644;28;46456;-81
2023/10/08 06:44:48;;;;;;;11.90;4.30;;;17.80;3.70;;;;;;4996915;28;46648;-81
2023/10/08 06:47:15;;;;;;;14.60;4.20;;;17.90;3.60;;;;;;5001718;28;46506;-81
2023/10/08 06:49:43;;;;;;;12.73;3.67;;;18.00;3.40;;;;;;4996281;28;46706;-81
2023/10/08 06:52:11;;;;;;;19.00;4.30;;;18.10;3.30;;;;;;4997444;28;47061;-80
2023/10/08 06:54:36;;;;;;;10.17;3.67;;;18.20;3.30;;;;;;4995990;28;46720;-79
2023/10/08 06:57:02;;;;;;;16.30;4.00;;;18.40;3.20;;;;;;4997317;28;47987;-80
2023/10/08 06:59:31;;;;;;;13.37;3.60;;;18.50;3.30;;;;;;4997989;28;46463;-80
2023/10/08 07:01:58;;;;;;;11.97;4.23;;;18.50;3.20;;;;;;4997633;28;46459;-79
2023/10/08 07:04:24;;;;;;;11.20;4.03;;;18.60;3.00;;;;;;4999197;28;46473;-79
2023/10/08 07:06:50;;;;;;;12.57;4.30;;;18.60;3.40;;;;;;4996683;28;46490;-79
2023/10/08 07:09:51;;;;;;;16.87;3.83;;;18.60;3.00;;;;;;4998797;28;46592;-80
2023/10/08 07:12:14;;;;;;;14.13;4.37;;;18.60;3.10;;;;;;4996360;28;46694;-79
2023/10/08 07:14:41;;;;;;;17.63;4.47;;;18.60;3.10;;;;;;4998197;28;46766;-78
2023/10/08 07:17:08;;;;;;;9.00;3.80;;;18.60;3.00;;;;;;4997464;28;46649;-78
2023/10/08 07:19:37;;;;;;;12.60;3.90;;;18.60;3.00;;;;;;4997896;28;45935;-78
2023/10/08 07:22:05;;;;;;;10.97;3.90;;;18.70;2.90;;;;;;4997754;28;46208;-79
2023/10/08 07:24:34;;;;;;;12.67;3.83;;;18.80;3.10;;;;;;4997855;28;46472;-79
2023/10/08 07:27:05;;;;;;;11.40;4.50;;;18.80;3.00;;;;;;4995002;28;48467;-76
2023/10/08 07:29:32;;;;;;;13.70;4.17;;;18.90;3.10;;;;;;4999466;28;46953;-81
2023/10/08 07:32:09;;;;;;;12.57;3.80;;;18.90;3.00;;;;;;4998883;28;46490;-80
2023/10/08 07:34:35;;;;;;;11.87;3.70;;;18.90;3.00;;;;;;5001576;28;46442;-80
2023/10/08 07:37:01;;;;;;;10.67;4.13;;;19.00;3.00;;;;;;4998358;28;48775;-80
2023/10/08 07:42:08;;;;;;;11.73;4.03;;;19.30;2.80;;;;;;4999800;28;45858;-80
2023/10/08 07:44:38;;;;;;;8.00;2.93;;;19.30;2.50;;;;;;4989191;28;46714;-77
2023/10/08 07:47:11;;;;;;;13.00;4.07;;;19.40;2.60;;;;;;5000576;28;48465;-79
2023/10/08 07:49:38;;;;;;;12.97;3.77;;;19.40;2.60;;;;;;5001117;28;46907;-79
2023/10/08 07:52:04;;;;;;;12.03;4.60;;;19.60;2.60;;;;;;5002640;28;46447;-79
2023/10/08 07:54:34;;;;;;;14.03;3.97;;;19.60;2.40;;;;;;4993574;28;47099;-79
2023/10/08 07:57:11;;;;;;;13.60;3.63;;;19.60;2.40;;;;;;5000198;28;46523;-78
2023/10/08 07:59:38;;;;;;;10.57;3.90;;;19.60;2.10;;;;;;5001782;28;46356;-79
2023/10/08 08:02:11;;;;;;;10.87;3.50;;;19.60;2.00;;;;;;5001874;28;46031;-78
2023/10/08 08:04:45;;;;;;;12.57;4.20;;;19.60;2.10;;;;;;4995816;28;46526;-81
2023/10/08 08:07:15;;;;;;;13.30;4.00;;;19.50;1.90;;;;;;5000211;28;48532;-80
2023/10/08 08:09:51;;;;;;;13.33;4.47;;;19.60;2.10;;;;;;5002639;28;46805;-79
2023/10/08 08:12:25;;;;;;;12.20;4.10;;;19.50;2.10;;;;;;5002143;28;46408;-80
2023/10/08 08:14:51;;;;;;;15.73;4.03;;;19.50;2.00;;;;;;5001861;28;46604;-80
2023/10/08 08:17:18;;;;;;;15.27;3.73;;;19.60;2.10;;;;;;5001659;28;46661;-79
2023/10/08 08:19:49;;;;;;;14.93;3.80;;;19.50;2.00;;;;;;4992059;28;46538;-80
2023/10/08 08:22:21;;;;;;;12.03;4.20;;;19.50;2.20;;;;;;5000003;28;46957;-78
2023/10/08 08:24:54;;;;;;;7.37;3.70;;;19.50;2.10;;;;;;4998930;28;46761;-79
2023/10/08 08:27:31;;;;;;;10.57;3.43;;;19.50;2.20;;;;;;4997885;28;46921;-79
2023/10/08 08:30:09;;;;;;;16.13;3.77;;;19.50;2.30;;;;;;5000319;28;46997;-80
2023/10/08 08:32:47;;;;;;;12.03;4.00;;;19.50;2.40;;;;;;5002270;28;46515;-80
2023/10/08 08:35:16;;;;;;;15.03;4.00;;;19.40;2.20;;;;;;5000774;28;46530;-79
2023/10/08 08:37:42;;;;;;;14.27;3.67;;;19.40;2.60;;;;;;4997738;28;46435;-78
2023/10/08 08:40:09;;;;;;;16.73;4.80;;;19.40;2.60;;;;;;5000918;28;46758;-78
2023/10/08 08:42:36;;;;;;;13.80;4.10;;;19.40;2.60;;;;;;4997996;28;46497;-79
2023/10/08 08:45:09;;;;;;;14.43;3.90;;;19.50;2.60;;;;;;5000062;28;47695;-80
2023/10/08 08:47:40;;;;;;;14.30;4.03;;;19.50;2.50;;;;;;4988723;28;48276;-80
2023/10/08 08:50:10;;;;;;;16.40;3.73;;;19.50;2.40;;;;;;5000820;28;46471;-78
2023/10/08 08:52:37;;;;;;;12.33;3.20;;;19.60;2.40;;;;;;4999845;28;47012;-79
2023/10/08 08:55:16;;;;;;;10.00;3.90;;;19.70;2.50;;;;;;4988243;28;46298;-82
2023/10/08 08:57:48;;;;;;;17.90;4.20;;;19.80;2.30;;;;;;4997159;28;47728;-82
2023/10/08 09:00:16;;;;;;;24.33;4.53;;;19.90;2.20;;;;;;4998330;28;46431;-82
2023/10/08 09:02:44;;;;;;;17.27;3.93;;;20.10;2.00;;;;;;5012248;28;46785;-78
2023/10/08 09:07:56;;;;;;;12.03;3.73;;;20.50;1.70;;;;;;5000367;28;46101;-77
2023/10/08 09:10:29;;;;;;;14.53;4.13;;;20.70;1.50;;;;;;5005300;28;46720;-78
2023/10/08 09:12:59;;;;;;;20.27;4.13;;;20.80;1.30;;;;;;5000065;28;46479;-80
2023/10/08 09:15:26;;;;;;;18.90;3.80;;;20.90;1.20;;;;;;5002551;28;46249;-78
2023/10/08 09:17:54;;;;;;;20.03;4.00;;;21.10;1.00;;;;;;4998972;28;47722;-76
2023/10/08 09:20:20;;;;;;;18.40;4.70;;;21.20;1.00;;;;;;4998092;28;46750;-82
2023/10/08 09:23:07;;;;;;;14.37;3.77;;;21.40;1.00;;;;;;5000378;28;48136;-80
2023/10/08 09:25:35;;;;;;;17.13;4.23;;;21.50;1.00;;;;;;4998939;28;46888;-80
2023/10/08 09:28:02;;;;;;;21.30;4.13;;;21.60;1.00;;;;;;4996291;28;47905;-83
2023/10/08 09:30:37;;;;;;;12.90;4.10;;;21.60;1.00;;;;;;4997231;28;46968;-85
2023/10/08 09:33:08;;;;;;;20.53;4.60;;;21.70;1.10;;;;;;5000856;28;46503;-85
2023/10/08 09:35:34;;;;;;;19.70;4.73;;;21.60;1.00;;;;;;4998045;28;46639;-79
2023/10/08 09:38:03;;;;;;;16.27;3.63;;;21.60;1.00;;;;;;5001114;28;47990;-82
2023/10/08 09:40:29;;;;;;;22.37;4.33;;;21.70;1.10;;;;;;4999438;28;46468;-81
2023/10/08 09:42:56;;;;;;;15.83;5.00;;;21.70;1.10;;;;;;5011042;28;46643;-84
2023/10/08 09:45:22;;;;;;;28.53;5.80;;;21.70;1.10;;;;;;5003972;28;46498;-83
2023/10/08 09:47:54;;;;;;;16.37;4.10;;;21.70;1.00;;;;;;4995337;28;48903;-79
2023/10/08 09:50:32;;;;;;;18.43;4.53;;;21.50;1.00;;;;;;4998574;28;46877;-79
2023/10/08 09:53:16;;;;;;;25.30;4.40;;;21.50;1.00;;;;;;5001433;28;46290;-82
2023/10/08 09:56:14;;;;;;;11.60;4.27;;;21.40;1.00;;;;;;4999398;28;46444;-81
2023/10/08 09:58:41;;;;;;;16.67;4.13;;;21.40;1.00;;;;;;4998170;28;46804;-80
2023/10/08 10:01:07;;;;;;;12.00;3.93;;;21.30;1.00;;;;;;4987562;28;46892;-82
2023/10/08 10:03:36;;;;;;;17.80;3.80;;;21.40;1.00;;;;;;4998926;28;46522;-80
2023/10/08 10:06:02;;;;;;;14.27;3.50;;;21.50;1.00;;;;;;4994750;28;46470;-80
2023/10/08 10:08:35;;;;;;;14.63;4.60;;;21.70;1.10;;;;;;5001960;28;46569;-82
2023/10/08 10:11:01;;;;;;;16.27;4.50;;;22.00;1.30;;;;;;4998256;28;46493;-82
2023/10/08 10:13:38;;;;;;;15.60;4.70;;;22.20;1.00;;;;;;4998371;28;47110;-82
2023/10/08 10:16:07;;;;;;;17.47;5.07;;;22.30;1.00;;;;;;4995010;28;47059;-82
2023/10/08 10:18:33;;;;;;;16.70;5.00;;;22.20;1.00;;;;;;4998565;28;47200;-81
2023/10/08 10:21:00;;;;;;;17.17;3.93;;;22.10;1.00;;;;;;4996439;28;46486;-79
2023/10/08 10:23:39;;;;;;;10.97;3.80;;;21.80;1.00;;;;;;4997825;28;46482;-79
2023/10/08 10:26:22;;;;;;;15.53;5.00;;;21.80;1.20;;;;;;4994187;28;46405;-81
2023/10/08 10:29:11;;;;;;;14.50;4.23;;;21.70;2.10;;;;;;4998423;28;47465;-82
2023/10/08 10:31:54;;;;;;;11.43;4.10;;;21.60;1.10;;;;;;4995596;28;46532;-81
2023/10/08 10:34:22;;;;;;;12.00;3.67;;;21.50;1.00;;;;;;4997399;28;46446;-80
2023/10/08 10:36:54;;;;;;;15.70;4.43;;;21.40;1.00;;;;;;4994652;28;46574;-82
2023/10/08 10:39:33;;;;;;;17.67;3.70;;;21.30;1.30;;;;;;4995814;28;47045;-80
2023/10/08 10:42:05;;;;;;;21.13;4.33;;;21.30;1.50;;;;;;4997417;28;46758;-81
2023/10/08 10:44:33;;;;;;;13.00;3.73;;;21.00;1.50;;;;;;4996037;28;46512;-79
2023/10/08 10:49:54;;;;;;;13.83;3.70;;;21.10;2.00;;;;;;4996627;28;46794;-80
2023/10/08 10:57:55;;;;;;;13.30;4.20;;;21.20;2.20;;;;;;4995897;28;46789;-80
2023/10/08 11:03:09;;;;;;;13.53;4.23;;;21.30;2.30;;;;;;4997677;28;46918;-81
2023/10/08 11:05:37;;;;;;;16.97;4.50;;;21.30;2.20;;;;;;5001430;28;45971;-78
2023/10/08 11:08:06;;;;;;;14.80;4.33;;;21.40;2.30;;;;;;5000052;28;47005;-80
2023/10/08 11:10:33;;;;;;;14.60;4.60;;;21.40;2.20;;;;;;4997520;28;46483;-79
2023/10/08 11:13:01;;;;;;;11.57;3.70;;;21.40;2.20;;;;;;4998720;28;47126;-79
2023/10/08 11:15:37;;;;;;;14.33;4.00;;;21.40;2.40;;;;;;4996421;28;46481;-78
2023/10/08 11:18:15;;;;;;;16.50;4.70;;;21.30;2.50;;;;;;4996795;28;46635;-80
2023/10/08 11:20:44;;;;;;;15.13;3.73;;;21.30;2.60;;;;;;4996526;28;46419;-80
2023/10/08 11:23:28;;;;;;;14.30;4.40;;;21.20;2.80;;;;;;4998254;28;46628;-81
2023/10/08 11:26:02;;;;;;;24.20;4.30;;;21.20;3.10;;;;;;4997736;28;46392;-78
2023/10/08 11:28:43;;;;;;;15.37;3.47;;;21.00;4.20;;;;;;4998525;28;46826;-80
2023/10/08 11:31:13;;;;;;;26.80;5.37;;;20.90;3.60;;;;;;4998235;28;47144;-80
2023/10/08 11:33:48;;;;;;;17.93;4.13;;;20.80;3.80;;;;;;4997304;28;45878;-79
2023/10/08 11:36:25;;;;;;;12.13;4.17;;;20.80;3.90;;;;;;4992697;28;46514;-78
2023/10/08 11:38:53;;;;;;;17.20;4.00;;;20.80;4.00;;;;;;4999338;28;46538;-78
2023/10/08 11:41:22;;;;;;;19.33;4.27;;;20.90;4.00;;;;;;4998400;28;47094;-79
2023/10/08 11:43:58;;;;;;;21.07;5.27;;;20.90;3.90;;;;;;4995216;28;46591;-77
2023/10/08 11:46:38;;;;;;;19.23;4.43;;;20.90;3.90;;;;;;4993818;28;45919;-79
2023/10/08 11:49:04;;;;;;;33.43;4.40;;;21.00;3.80;;;;;;5000498;28;46530;-81
2023/10/08 11:51:36;;;;;;;18.63;5.00;;;21.00;3.50;;;;;;5000823;28;47099;-78
2023/10/08 11:54:02;;;;;;;18.93;3.73;;;21.10;3.40;;;;;;5003907;28;46224;-83
2023/10/08 11:56:33;;;;;;;20.03;3.70;;;21.30;3.30;;;;;;5001948;28;46047;-80
2023/10/08 11:59:01;;;;;;;25.00;4.10;;;21.30;3.40;;;;;;5002931;28;46700;-80
2023/10/08 12:01:27;;;;;;;22.83;4.33;;;21.50;3.60;;;;;;4999822;28;47065;-80
2023/10/08 12:03:59;;;;;;;16.27;4.23;;;21.40;3.70;;;;;;4997889;28;46987;-78
2023/10/08 12:06:25;;;;;;;21.57;3.93;;;21.40;3.70;;;;;;4995382;28;46517;-78
2023/10/08 12:08:53;;;;;;;23.90;5.57;;;21.40;3.80;;;;;;4997658;28;46685;-81
2023/10/08 12:11:22;;;;;;;23.27;4.20;;;21.30;3.90;;;;;;4993438;28;48382;-79
2023/10/08 12:13:49;;;;;;;20.73;4.83;;;21.40;4.20;;;;;;4996956;28;46578;-82
2023/10/08 12:16:21;;;;;;;16.53;4.70;;;21.40;4.20;;;;;;4997017;28;45936;-78
2023/10/08 12:18:58;;;;;;;25.03;4.67;;;21.40;4.30;;;;;;4999162;28;46484;-79
2023/10/08 12:21:30;;;;;;;27.27;5.10;;;21.40;4.20;;;;;;4999017;28;46903;-78
2023/10/08 12:24:04;;;;;;;19.33;3.50;;;21.40;4.20;;;;;;5000160;28;46372;-77
2023/10/08 12:26:31;;;;;;;15.50;4.57;;;21.40;4.20;;;;;;4997199;28;46794;-78
2023/10/08 12:28:57;;;;;;;26.27;4.93;;;21.40;4.40;;;;;;4999455;28;46509;-79
2023/10/08 12:31:24;;;;;;;17.30;4.10;;;21.40;4.50;;;;;;4998652;28;46802;-78
2023/10/08 12:33:53;;;;;;;13.30;4.47;;;21.30;4.40;;;;;;4999300;28;46605;-79
2023/10/08 12:36:26;;;;;;;15.67;4.47;;;21.40;4.30;;;;;;4997416;28;46547;-79
2023/10/08 12:38:57;;;;;;;18.07;4.60;;;21.50;4.20;;;;;;4997556;28;47694;-81
2023/10/08 12:41:24;;;;;;;14.43;4.63;;;21.70;4.00;;;;;;4989083;28;49167;-81
2023/10/08 12:43:53;;;;;;;15.07;4.00;;;21.70;3.80;;;;;;4996971;28;46494;-79
2023/10/08 12:46:26;;;;;;;19.23;4.53;;;21.80;3.80;;;;;;5000377;28;46614;-82
2023/10/08 12:48:54;;;;;;;15.23;3.90;;;22.00;3.70;;;;;;5000205;28;46527;-79
2023/10/08 12:51:25;;;;;;;15.50;4.33;;;22.00;3.60;;;;;;5001309;28;46885;-81
2023/10/08 12:54:08;;;;;;;24.00;5.13;;;22.20;3.30;;;;;;4999128;28;46559;-77
2023/10/08 12:56:48;;;;;;;19.43;4.20;;;22.20;3.30;;;;;;4998576;28;45906;-81
2023/10/08 12:59:20;;;;;;;14.77;3.73;;;22.30;3.30;;;;;;5003414;28;46574;-82
2023/10/08 13:01:51;;;;;;;16.20;4.97;;;22.30;3.30;;;;;;5005403;28;46885;-81
2023/10/08 13:04:27;;;;;;;19.83;4.73;;;22.40;3.10;;;;;;5001678;28;46476;-83
2023/10/08 13:06:57;;;;;;;20.07;4.07;;;22.30;3.20;;;;;;5006216;28;46685;-83
2023/10/08 13:09:24;;;;;;;23.17;5.20;;;22.30;3.30;;;;;;5007327;28;46416;-80
2023/10/08 13:11:50;;;;;;;17.00;4.63;;;22.30;3.30;;;;;;5007015;28;46725;-82
2023/10/08 13:14:15;;;;;;;16.47;4.30;;;22.40;3.20;;;;;;5005529;28;46827;-81
2023/10/08 13:16:41;;;;;;;15.87;4.63;;;22.40;3.20;;;;;;5010217;28;46470;-85
2023/10/08 13:19:08;;;;;;;24.10;4.40;;;22.40;3.20;;;;;;5000261;28;46567;-84
2023/10/08 13:21:36;;;;;;;23.70;4.80;;;22.30;3.40;;;;;;4998722;28;46512;-82
2023/10/08 13:24:02;;;;;;;21.80;4.50;;;22.30;3.40;;;;;;4999653;28;46447;-83
2023/10/08 13:26:31;;;;;;;26.77;4.90;;;22.30;3.50;;;;;;4997138;28;46529;-81
2023/10/08 13:29:01;;;;;;;18.17;4.50;;;22.30;3.60;;;;;;4997410;28;47223;-82
2023/10/08 13:31:27;;;;;;;14.03;4.60;;;22.20;3.70;;;;;;4999694;28;46481;-79
2023/10/08 13:33:56;;;;;;;18.87;4.17;;;22.20;4.40;;;;;;5005481;28;46811;-79
2023/10/08 13:36:23;;;;;;;16.47;4.20;;;22.20;3.50;;;;;;5001040;28;46532;-79
2023/10/08 13:38:49;;;;;;;22.90;4.20;;;22.20;3.40;;;;;;5000214;28;46546;-80
2023/10/08 13:41:15;;;;;;;29.47;4.33;;;22.30;3.60;;;;;;5000149;28;48431;-80
2023/10/08 13:43:45;;;;;;;16.67;4.57;;;22.30;3.60;;;;;;5000504;28;46942;-81
2023/10/08 13:46:15;;;;;;;13.57;3.87;;;22.20;3.60;;;;;;5000310;28;46506;-80
2023/10/08 13:48:42;;;;;;;17.03;3.93;;;22.20;3.70;;;;;;5000340;28;47140;-80
2023/10/08 13:51:14;;;;;;;16.87;4.53;;;22.20;3.70;;;;;;5000870;28;46994;-79
2023/10/08 13:53:41;;;;;;;15.47;4.70;;;22.20;3.60;;;;;;4999998;28;46431;-80
2023/10/08 13:56:06;;;;;;;23.27;4.10;;;22.10;3.50;;;;;;5001032;28;46310;-80
2023/10/08 13:58:35;;;;;;;21.53;4.43;;;22.10;3.60;;;;;;4999244;28;46417;-80
2023/10/08 14:01:03;;;;;;;12.97;4.00;;;22.00;3.60;;;;;;5000185;28;46833;-79
2023/10/08 14:03:30;;;;;;;16.43;4.80;;;22.00;3.70;;;;;;4996546;28;47302;-81
2023/10/08 14:06:01;;;;;;;17.80;4.90;;;22.00;3.80;;;;;;4998543;28;46566;-80
2023/10/08 14:08:28;;;;;;;10.90;3.70;;;22.00;3.90;;;;;;5000081;28;46453;-79
2023/10/08 14:11:00;;;;;;;18.43;3.80;;;21.90;3.90;;;;;;5002071;28;46344;-80